MV Metin Dadayli — TCSO5 — position and weather

sailwx.info

Track history (hours):
 
Tides and Currents Weather Stations Pressure Air Temp Water Temp Dewpoint Dewpoint Depression Visibility Wind Speed Wind Dir Waves Ship Positions

MV Metin Dadayli

Last reported at 2017-Oct-18 13:10 UTC. Time now 2017-Oct-19 09:19 UTC.
Position N 41°41' E 032°13'.

Length 92 m; draft 5.2 m.

Type: Cargo ship. MMSI: 271000934.

Date/timePositionNaut miles runAvg speedWind from/ knotsBaromVisibWave heightAir tempDewpointWater temp
2017-Oct-18 13:10N 41°41' E 032°13'0 0.0
2017-Oct-18 10:46N 41°41' E 032°13'3 9.3
2017-Oct-18 10:29N 41°40' E 032°09'5212.0
2017-Oct-18 06:12N 41°31' E 031°01'411.7
2017-Oct-18 05:53N 41°30' E 030°57'611.4
2017-Oct-18 05:19N 41°29' E 030°48'8710.5
2017-Oct-17 21:03N 40°59' E 028°60'110.5
2017-Oct-17 21:00N 40°59' E 028°60'4 7.7
2017-Oct-17 20:27N 40°55' E 029°04'3 7.5
2017-Oct-17 20:00N 40°53' E 029°08'3 5.3
2017-Oct-17 19:22N 40°52' E 029°12'0 0.1
2017-Oct-17 18:58N 40°52' E 029°12'0 0.0
2017-Oct-17 18:22N 40°52' E 029°12'0 0.0
2017-Oct-17 17:46N 40°52' E 029°12'0 0.0
2017-Oct-17 17:28N 40°52' E 029°12'0 0.0
2017-Oct-17 16:57N 40°52' E 029°12'0 0.0
2017-Oct-17 16:21N 40°52' E 029°12'0 0.0
2017-Oct-17 15:53N 40°52' E 029°12'0 0.0
2017-Oct-17 14:58N 40°52' E 029°12'0 0.0
2017-Oct-17 14:28N 40°52' E 029°12'0 0.0
2017-Oct-17 13:57N 40°52' E 029°12'0 0.0
2017-Oct-17 13:27N 40°52' E 029°12'0 0.0
2017-Oct-17 12:51N 40°52' E 029°12'0 0.0
2017-Oct-17 12:21N 40°52' E 029°12'0 0.1
2017-Oct-17 12:00N 40°52' E 029°12'4 8.0
2017-Oct-17 11:30N 40°50' E 029°07'  
2017-Oct-09 04:47N 36°37' E 014°53'511.5
2017-Oct-09 04:22N 36°38' E 014°47'411.5
2017-Oct-09 04:00N 36°39' E 014°42'611.3
2017-Oct-09 03:30N 36°40' E 014°35'611.2
2017-Oct-09 03:00N 36°41' E 014°29'611.4
2017-Oct-09 02:30N 36°42' E 014°22'611.6
2017-Oct-09 02:00N 36°43' E 014°14'611.5
2017-Oct-09 01:30N 36°45' E 014°07'611.7
2017-Oct-09 01:00N 36°46' E 014°00'611.9
2017-Oct-09 00:30N 36°48' E 013°53'612.1
2017-Oct-09 00:00N 36°49' E 013°46'612.0
2017-Oct-08 23:30N 36°51' E 013°39'  
Track history (hours):
 
Tides and Currents Weather Stations Pressure Air Temp Water Temp Dewpoint Dewpoint Depression Visibility Wind Speed Wind Dir Waves Ship Positions

MV Metin Dadayli

Last reported at 2017-Oct-18 13:10 UTC. Time now 2017-Oct-19 09:19 UTC.
Position N 41°41' E 032°13'.

Length 92 m; draft 5.2 m.

Type: Cargo ship. MMSI: 271000934.

Date/timePositionNaut miles runAvg speedWind from/ knotsBaromVisibWave heightAir tempDewpointWater temp
2017-Oct-18 13:10N 41°41' E 032°13'0 0.0
2017-Oct-18 10:46N 41°41' E 032°13'3 9.3
2017-Oct-18 10:29N 41°40' E 032°09'5212.0
2017-Oct-18 06:12N 41°31' E 031°01'411.7
2017-Oct-18 05:53N 41°30' E 030°57'611.4
2017-Oct-18 05:19N 41°29' E 030°48'8710.5
2017-Oct-17 21:03N 40°59' E 028°60'110.5
2017-Oct-17 21:00N 40°59' E 028°60'4 7.7
2017-Oct-17 20:27N 40°55' E 029°04'3 7.5
2017-Oct-17 20:00N 40°53' E 029°08'3 5.3
2017-Oct-17 19:22N 40°52' E 029°12'0 0.1
2017-Oct-17 18:58N 40°52' E 029°12'0 0.0
2017-Oct-17 18:22N 40°52' E 029°12'0 0.0
2017-Oct-17 17:46N 40°52' E 029°12'0 0.0
2017-Oct-17 17:28N 40°52' E 029°12'0 0.0
2017-Oct-17 16:57N 40°52' E 029°12'0 0.0
2017-Oct-17 16:21N 40°52' E 029°12'0 0.0
2017-Oct-17 15:53N 40°52' E 029°12'0 0.0
2017-Oct-17 14:58N 40°52' E 029°12'0 0.0
2017-Oct-17 14:28N 40°52' E 029°12'0 0.0
2017-Oct-17 13:57N 40°52' E 029°12'0 0.0
2017-Oct-17 13:27N 40°52' E 029°12'0 0.0
2017-Oct-17 12:51N 40°52' E 029°12'0 0.0
2017-Oct-17 12:21N 40°52' E 029°12'0 0.1
2017-Oct-17 12:00N 40°52' E 029°12'4 8.0
2017-Oct-17 11:30N 40°50' E 029°07'  
2017-Oct-09 04:47N 36°37' E 014°53'511.5
2017-Oct-09 04:22N 36°38' E 014°47'411.5
2017-Oct-09 04:00N 36°39' E 014°42'611.3
2017-Oct-09 03:30N 36°40' E 014°35'611.2
2017-Oct-09 03:00N 36°41' E 014°29'611.4
2017-Oct-09 02:30N 36°42' E 014°22'611.6
2017-Oct-09 02:00N 36°43' E 014°14'611.5
2017-Oct-09 01:30N 36°45' E 014°07'611.7
2017-Oct-09 01:00N 36°46' E 014°00'611.9
2017-Oct-09 00:30N 36°48' E 013°53'612.1
2017-Oct-09 00:00N 36°49' E 013°46'612.0
2017-Oct-08 23:30N 36°51' E 013°39'  

Dump ship's entire track history